createdAt,value
2019-03-25T00:00:17.063Z,84.30
2019-03-25T00:01:17.050Z,84.92
2019-03-25T00:02:17.020Z,85.03
2019-03-25T00:03:17.009Z,84.96
2019-03-25T00:04:16.995Z,84.41
2019-03-25T00:05:16.994Z,84.92
2019-03-25T00:06:17.000Z,84.92
2019-03-25T00:07:16.964Z,85.13
2019-03-25T00:08:16.954Z,84.92
2019-03-25T00:09:16.967Z,85.06
2019-03-25T00:10:16.934Z,85.13
2019-03-25T00:11:16.948Z,84.92
2019-03-25T00:12:16.926Z,85.28
2019-03-25T00:13:16.906Z,84.72
2019-03-25T00:14:16.890Z,85.03
2019-03-25T00:15:16.930Z,84.92
2019-03-25T00:16:16.868Z,85.03
2019-03-25T00:17:16.878Z,85.03
2019-03-25T00:18:16.885Z,85.03
2019-03-25T00:19:16.843Z,84.96
2019-03-25T00:20:16.838Z,85.90
2019-03-25T00:21:16.820Z,85.59
2019-03-25T00:22:16.830Z,85.86
2019-03-25T00:23:16.798Z,85.90
2019-03-25T00:24:16.788Z,85.59
2019-03-25T00:25:16.813Z,85.86
2019-03-25T00:26:16.759Z,85.96
2019-03-25T00:27:16.772Z,85.75
2019-03-25T00:28:16.747Z,85.96
2019-03-25T00:29:16.732Z,85.55
2019-03-25T00:30:16.738Z,86.00
2019-03-25T00:31:16.759Z,85.55
2019-03-25T00:32:16.716Z,85.86
2019-03-25T00:33:16.686Z,85.65
2019-03-25T00:34:16.672Z,86.07
2019-03-25T00:35:16.663Z,86.17
2019-03-25T00:36:16.655Z,85.96
2019-03-25T00:37:16.660Z,86.17
2019-03-25T00:38:16.674Z,85.65
2019-03-25T00:39:16.624Z,86.27
2019-03-25T00:40:16.617Z,86.24
2019-03-25T00:41:16.601Z,86.13
2019-03-25T00:42:16.609Z,86.13
2019-03-25T00:43:16.598Z,85.88
2019-03-25T00:44:16.638Z,86.30
2019-03-25T00:45:16.559Z,85.88
2019-03-25T00:46:16.551Z,85.78
2019-03-25T00:47:16.559Z,85.05
2019-03-25T00:48:16.561Z,84.39
2019-03-25T00:49:16.515Z,84.29
2019-03-25T00:50:16.507Z,84.29
2019-03-25T00:51:16.505Z,84.50
2019-03-25T00:52:16.497Z,84.70
2019-03-25T00:53:16.471Z,84.36
2019-03-25T00:54:16.460Z,83.84
2019-03-25T00:55:16.471Z,83.42
2019-03-25T00:56:16.441Z,83.73
2019-03-25T00:57:16.447Z,83.01
2019-03-25T00:58:16.443Z,82.70
2019-03-25T00:59:16.410Z,82.49
2019-03-25T01:00:16.399Z,82.45
2019-03-25T01:01:16.391Z,82.34
2019-03-25T01:02:16.391Z,82.14
2019-03-25T01:03:16.401Z,82.65
2019-03-25T01:04:16.349Z,82.55
2019-03-25T01:05:16.353Z,82.03
2019-03-25T01:06:16.333Z,82.45
2019-03-25T01:07:16.338Z,82.20
2019-03-25T01:08:16.313Z,81.06
2019-03-25T01:09:16.342Z,80.96
2019-03-25T01:10:16.293Z,81.06
2019-03-25T01:11:16.273Z,81.27
2019-03-25T01:12:16.281Z,80.65
2019-03-25T01:13:16.262Z,81.16
2019-03-25T01:14:16.247Z,80.54
2019-03-25T01:15:16.254Z,80.75
2019-03-25T01:16:16.221Z,80.23
2019-03-25T01:17:16.222Z,80.54
2019-03-25T01:18:17.278Z,80.23
2019-03-25T01:19:16.191Z,79.71
2019-03-25T01:20:16.244Z,80.65
2019-03-25T01:21:16.204Z,80.61
2019-03-25T01:22:16.174Z,80.44
2019-03-25T01:23:16.148Z,80.23
2019-03-25T01:24:16.170Z,80.65
2019-03-25T01:25:16.130Z,80.75
2019-03-25T01:26:16.119Z,80.75
2019-03-25T01:27:16.161Z,80.75
2019-03-25T01:28:16.108Z,80.68
2019-03-25T01:29:16.084Z,80.75
2019-03-25T01:30:16.076Z,80.99
2019-03-25T01:31:16.058Z,80.23
2019-03-25T01:32:16.084Z,80.79
2019-03-25T01:33:16.048Z,80.68
2019-03-25T01:34:16.026Z,80.68
2019-03-25T01:35:16.024Z,81.30
2019-03-25T01:36:16.016Z,80.68
2019-03-25T01:37:16.000Z,80.79
2019-03-25T01:38:16.000Z,81.14
2019-03-25T01:39:15.972Z,81.41
2019-03-25T01:40:15.990Z,82.14
2019-03-25T01:41:15.955Z,81.51
2019-03-25T01:42:15.942Z,81.41
2019-03-25T01:43:15.947Z,81.35
2019-03-25T01:44:15.933Z,82.39
2019-03-25T01:45:15.910Z,81.56
2019-03-25T01:46:15.904Z,82.28
2019-03-25T01:47:15.930Z,82.07
2019-03-25T01:48:15.900Z,82.28
2019-03-25T01:49:15.866Z,81.97
2019-03-25T01:50:15.860Z,82.18
2019-03-25T01:51:15.844Z,82.49
2019-03-25T01:52:15.835Z,82.07
2019-03-25T01:53:15.852Z,82.07
2019-03-25T01:54:15.862Z,81.97
2019-03-25T01:55:15.805Z,82.59
2019-03-25T01:56:15.793Z,81.87
2019-03-25T01:57:15.788Z,82.59
2019-03-25T01:58:15.788Z,82.55
2019-03-25T01:59:15.763Z,82.80
2019-03-25T02:00:15.793Z,82.14
2019-03-25T02:01:15.746Z,81.87
2019-03-25T02:02:15.729Z,82.70
2019-03-25T02:03:15.743Z,82.80
2019-03-25T02:04:15.712Z,82.70
2019-03-25T02:05:15.721Z,82.90
2019-03-25T02:06:15.687Z,81.97
2019-03-25T02:07:15.675Z,81.97
2019-03-25T02:08:15.687Z,81.97
2019-03-25T02:09:15.682Z,82.70
2019-03-25T02:10:15.641Z,82.70
2019-03-25T02:11:15.632Z,82.55
2019-03-25T02:12:15.629Z,82.24
2019-03-25T02:13:15.627Z,82.24
2019-03-25T02:14:15.599Z,82.14
2019-03-25T02:15:15.595Z,82.28
2019-03-25T02:16:15.587Z,82.07
2019-03-25T02:17:15.605Z,82.24
2019-03-25T02:18:15.578Z,82.39
2019-03-25T02:19:15.543Z,82.59
2019-03-25T02:20:25.851Z,82.70
2019-03-25T02:21:16.523Z,82.18
2019-03-25T02:22:15.519Z,82.70
2019-03-25T02:23:15.531Z,82.59
2019-03-25T02:24:15.520Z,82.63
2019-03-25T02:25:24.754Z,81.66
2019-03-25T02:26:16.499Z,82.49
2019-03-25T02:27:15.464Z,82.32
2019-03-25T02:28:15.448Z,83.04
2019-03-25T02:29:15.461Z,82.73
2019-03-25T02:30:15.443Z,82.63
2019-03-25T02:31:15.420Z,82.63
2019-03-25T02:32:15.416Z,83.25
2019-03-25T02:33:15.397Z,82.53
2019-03-25T02:34:15.407Z,82.84
2019-03-25T02:35:15.383Z,82.15
2019-03-25T02:36:15.408Z,82.67
2019-03-25T02:37:15.378Z,82.77
2019-03-25T02:38:15.351Z,82.77
2019-03-25T02:39:15.351Z,83.39
2019-03-25T02:40:15.328Z,82.70
2019-03-25T02:41:18.537Z,82.98
2019-03-25T02:42:15.312Z,83.12
2019-03-25T02:43:15.307Z,82.87
2019-03-25T02:44:15.302Z,83.81
2019-03-25T02:45:15.293Z,83.12
2019-03-25T02:46:15.259Z,84.53
2019-03-25T02:47:15.250Z,84.33
2019-03-25T02:48:15.241Z,84.68
2019-03-25T02:49:15.239Z,84.58
2019-03-25T02:50:15.217Z,84.37
2019-03-25T02:51:15.246Z,84.58
2019-03-25T02:52:15.205Z,84.27
2019-03-25T02:53:15.194Z,84.58
2019-03-25T02:54:15.196Z,84.27
2019-03-25T02:55:15.189Z,84.78
2019-03-25T02:56:15.157Z,84.27
2019-03-25T02:57:15.147Z,84.47
2019-03-25T02:58:15.137Z,84.99
2019-03-25T02:59:15.174Z,84.78
2019-03-25T03:00:15.149Z,85.16
2019-03-25T03:01:15.101Z,84.37
2019-03-25T03:02:15.090Z,84.78
2019-03-25T03:03:15.082Z,84.37
2019-03-25T03:04:15.078Z,84.27
2019-03-25T03:05:15.056Z,84.12
2019-03-25T03:06:15.049Z,84.33
2019-03-25T03:07:15.060Z,83.50
2019-03-25T03:08:15.041Z,84.33
2019-03-25T03:09:15.025Z,83.81
2019-03-25T03:10:15.012Z,83.81
2019-03-25T03:11:15.007Z,83.70
2019-03-25T03:12:15.009Z,83.29
2019-03-25T03:13:14.968Z,82.98
2019-03-25T03:14:15.618Z,83.18
2019-03-25T03:15:14.966Z,83.29
2019-03-25T03:16:14.938Z,83.39
2019-03-25T03:17:14.928Z,82.67
2019-03-25T03:18:14.921Z,83.08
2019-03-25T03:19:14.925Z,82.87
2019-03-25T03:20:14.896Z,83.50
2019-03-25T03:21:14.938Z,82.98
2019-03-25T03:22:14.875Z,82.81
2019-03-25T03:23:14.862Z,83.29
2019-03-25T03:24:14.866Z,83.39
2019-03-25T03:25:14.844Z,82.67
2019-03-25T03:26:14.842Z,82.67
2019-03-25T03:27:14.817Z,82.77
2019-03-25T03:28:14.836Z,83.29
2019-03-25T03:29:14.832Z,83.33
2019-03-25T03:30:14.798Z,84.01
2019-03-25T03:31:14.783Z,84.05
2019-03-25T03:32:14.785Z,83.74
2019-03-25T03:33:14.797Z,84.05
2019-03-25T03:34:14.787Z,83.84
2019-03-25T03:35:14.735Z,83.84
2019-03-25T03:36:14.727Z,83.95
2019-03-25T03:37:14.715Z,83.74
2019-03-25T03:38:14.703Z,84.47
2019-03-25T03:39:14.746Z,84.37
2019-03-25T03:40:14.688Z,84.47
2019-03-25T03:41:14.671Z,84.78
2019-03-25T03:42:14.664Z,84.37
2019-03-25T03:43:14.664Z,84.89
2019-03-25T03:44:14.642Z,84.37
2019-03-25T03:45:14.667Z,84.37
2019-03-25T03:46:14.616Z,84.64
2019-03-25T03:47:14.617Z,83.60
2019-03-25T03:48:14.596Z,84.01
2019-03-25T03:49:14.581Z,84.74
2019-03-25T03:50:14.593Z,83.74
2019-03-25T03:51:14.581Z,83.81
2019-03-25T03:52:14.551Z,83.08
2019-03-25T03:53:14.584Z,82.77
2019-03-25T03:54:14.535Z,82.67
2019-03-25T03:55:14.538Z,82.21
2019-03-25T03:56:14.677Z,82.63
2019-03-25T03:57:14.498Z,82.11
2019-03-25T03:58:14.487Z,82.49
2019-03-25T03:59:14.514Z,81.87
2019-03-25T04:00:14.481Z,81.45
2019-03-25T04:01:14.463Z,81.24
2019-03-25T04:02:14.442Z,81.45
2019-03-25T04:03:14.435Z,80.62
2019-03-25T04:04:14.428Z,81.07
2019-03-25T04:05:14.431Z,80.76
2019-03-25T04:06:14.406Z,81.14
2019-03-25T04:07:14.457Z,80.73
2019-03-25T04:08:14.375Z,80.87
2019-03-25T04:09:14.368Z,80.97
2019-03-25T04:10:14.393Z,81.38
2019-03-25T04:11:14.347Z,81.24
2019-03-25T04:12:14.347Z,80.93
2019-03-25T04:13:14.333Z,80.83
2019-03-25T04:14:14.357Z,81.18
2019-03-25T04:15:14.348Z,81.28
2019-03-25T04:16:14.311Z,81.24
2019-03-25T04:17:14.287Z,80.83
2019-03-25T04:18:14.277Z,80.83
2019-03-25T04:19:14.263Z,81.24
2019-03-25T04:20:14.265Z,80.83
2019-03-25T04:21:14.245Z,80.83
2019-03-25T04:22:14.259Z,81.14
2019-03-25T04:23:14.226Z,81.20
2019-03-25T04:24:14.210Z,80.99
2019-03-25T04:25:14.218Z,81.41
2019-03-25T04:26:27.604Z,80.47
2019-03-25T04:27:15.178Z,81.10
2019-03-25T04:28:14.199Z,80.68
2019-03-25T04:29:14.159Z,80.79
2019-03-25T04:30:14.181Z,80.79
2019-03-25T04:31:14.133Z,80.79
2019-03-25T04:32:14.123Z,81.48
2019-03-25T04:33:14.122Z,80.44
2019-03-25T04:34:14.098Z,80.65
2019-03-25T04:35:14.146Z,80.51
2019-03-25T04:36:14.098Z,80.40
2019-03-25T04:37:14.077Z,80.54
2019-03-25T04:38:14.063Z,80.61
2019-03-25T04:39:14.048Z,80.44
2019-03-25T04:40:14.042Z,80.40
2019-03-25T04:41:14.040Z,80.51
2019-03-25T04:42:14.052Z,79.88
2019-03-25T04:43:14.007Z,79.68
2019-03-25T04:44:14.000Z,79.58
2019-03-25T04:45:13.979Z,80.19
2019-03-25T04:46:13.994Z,80.09
2019-03-25T04:47:13.962Z,80.19
2019-03-25T04:48:13.982Z,79.47
2019-03-25T04:49:13.939Z,79.88
2019-03-25T04:50:13.926Z,79.99
2019-03-25T04:51:13.934Z,78.40
2019-03-25T04:52:13.907Z,79.44
2019-03-25T04:53:13.901Z,79.23
2019-03-25T04:54:13.893Z,78.40
2019-03-25T04:55:13.984Z,78.71
2019-03-25T04:56:13.891Z,78.50
2019-03-25T04:57:13.858Z,78.81
2019-03-25T04:58:13.880Z,78.50
2019-03-25T04:59:13.838Z,77.98
2019-03-25T05:00:13.819Z,77.98
2019-03-25T05:01:14.537Z,78.40
2019-03-25T05:02:13.795Z,78.16
2019-03-25T05:03:13.795Z,77.95
2019-03-25T05:04:13.775Z,77.64
2019-03-25T05:05:13.770Z,77.22
2019-03-25T05:06:13.786Z,76.81
2019-03-25T05:07:13.747Z,77.53
2019-03-25T05:08:13.755Z,76.81
2019-03-25T05:09:13.725Z,77.12
2019-03-25T05:10:13.719Z,76.71
2019-03-25T05:11:13.729Z,76.46
2019-03-25T05:12:13.705Z,76.29
2019-03-25T05:13:13.679Z,76.81
2019-03-25T05:14:13.803Z,76.57
2019-03-25T05:15:13.851Z,76.67
2019-03-25T05:16:13.658Z,76.50
2019-03-25T05:17:13.651Z,76.46
2019-03-25T05:18:13.783Z,76.50
2019-03-25T05:19:13.685Z,75.53
2019-03-25T05:20:13.605Z,75.84
2019-03-25T05:21:13.599Z,75.32
2019-03-25T05:22:13.617Z,76.15
2019-03-25T05:23:13.575Z,75.32
2019-03-25T05:24:13.563Z,76.36
2019-03-25T05:25:13.610Z,75.43
2019-03-25T05:26:13.536Z,75.43
2019-03-25T05:27:13.554Z,75.43
2019-03-25T05:28:20.431Z,75.43
2019-03-25T05:29:13.513Z,75.63
2019-03-25T05:30:13.494Z,75.84
2019-03-25T05:31:13.490Z,76.84
2019-03-25T05:32:13.498Z,75.70
2019-03-25T05:33:13.552Z,75.74
2019-03-25T05:34:13.553Z,75.60
2019-03-25T05:35:13.442Z,75.60
2019-03-25T05:36:13.438Z,75.40
2019-03-25T05:37:13.424Z,75.32
2019-03-25T05:38:13.633Z,75.70
2019-03-25T05:39:13.424Z,75.91
2019-03-25T05:40:13.407Z,74.46
2019-03-25T05:41:13.399Z,75.19
2019-03-25T05:42:13.363Z,75.81
2019-03-25T05:43:13.367Z,76.01
2019-03-25T05:44:13.352Z,76.01
2019-03-25T05:45:13.382Z,75.91
2019-03-25T05:46:13.328Z,76.95
2019-03-25T05:47:13.338Z,78.60
2019-03-25T05:48:13.315Z,80.60
2019-03-25T05:49:13.292Z,83.29
2019-03-25T05:50:13.287Z,85.05
2019-03-25T05:51:13.290Z,87.99
2019-03-25T05:52:13.286Z,88.61
2019-03-25T05:53:13.252Z,89.94
2019-03-25T05:54:13.241Z,90.66
2019-03-25T05:55:13.250Z,92.36
2019-03-25T05:56:13.221Z,92.30
2019-03-25T05:57:13.225Z,93.80
2019-03-25T05:58:13.198Z,94.11
2019-03-25T05:59:13.192Z,94.67
2019-03-25T06:00:13.174Z,95.54
2019-03-25T06:01:13.210Z,96.89
2019-03-25T06:02:13.166Z,97.25
2019-03-25T06:03:13.138Z,97.67
2019-03-25T06:04:13.130Z,97.25
2019-03-25T06:05:13.118Z,97.67
2019-03-25T06:06:13.116Z,97.61
2019-03-25T06:07:13.143Z,98.13
2019-03-25T06:08:13.092Z,99.06
2019-03-25T06:09:13.076Z,98.75
2019-03-25T06:10:13.074Z,98.75
2019-03-25T06:11:13.064Z,99.16
2019-03-25T06:12:13.062Z,99.48
2019-03-25T06:13:13.028Z,99.99
2019-03-25T06:14:13.028Z,99.99
2019-03-25T06:15:13.014Z,99.99
2019-03-25T06:16:13.054Z,99.90
2019-03-25T06:17:13.008Z,99.99
2019-03-25T06:18:12.979Z,99.99
2019-03-25T06:19:12.968Z,99.99
2019-03-25T06:20:12.966Z,99.99
2019-03-25T06:21:12.950Z,99.99
2019-03-25T06:22:13.008Z,99.99
2019-03-25T06:23:12.927Z,99.99
2019-03-25T06:24:12.920Z,99.99
2019-03-25T06:25:12.940Z,99.99
2019-03-25T06:26:12.894Z,99.99
2019-03-25T06:27:14.483Z,99.99
2019-03-25T06:28:12.877Z,99.99
2019-03-25T06:29:12.872Z,99.99
2019-03-25T06:30:12.863Z,99.99
2019-03-25T06:31:12.841Z,99.99
2019-03-25T06:32:12.843Z,99.99
2019-03-25T06:33:13.007Z,99.99
2019-03-25T06:34:12.833Z,99.99
2019-03-25T06:35:12.796Z,99.99
2019-03-25T06:36:12.789Z,99.99
2019-03-25T06:37:12.788Z,99.99
2019-03-25T06:38:12.831Z,99.99
2019-03-25T06:39:12.759Z,99.99
2019-03-25T06:40:12.741Z,99.99
2019-03-25T06:41:12.755Z,99.99
2019-03-25T06:42:12.727Z,99.99
2019-03-25T06:43:12.734Z,99.99
2019-03-25T06:44:12.699Z,99.99
2019-03-25T06:45:12.703Z,99.99
2019-03-25T06:46:12.689Z,99.99
2019-03-25T06:47:12.687Z,99.99
2019-03-25T06:48:12.678Z,99.99
2019-03-25T06:49:12.651Z,99.99
2019-03-25T06:50:12.675Z,99.99
2019-03-25T06:51:12.631Z,99.99
2019-03-25T06:52:12.631Z,99.99
2019-03-25T06:53:12.631Z,99.99
2019-03-25T06:54:12.600Z,99.99
2019-03-25T06:55:12.621Z,99.99
2019-03-25T06:56:12.577Z,99.99
2019-03-25T06:57:12.563Z,99.99
2019-03-25T06:58:12.577Z,99.99
2019-03-25T06:59:12.544Z,99.99
2019-03-25T07:00:12.540Z,99.99
2019-03-25T07:01:12.534Z,99.99
2019-03-25T07:02:12.513Z,99.99
2019-03-25T07:03:12.509Z,99.99
2019-03-25T07:04:12.483Z,99.99
2019-03-25T07:05:12.516Z,99.99
2019-03-25T07:06:12.463Z,99.99
2019-03-25T07:07:12.458Z,99.99
2019-03-25T07:08:12.470Z,99.99
2019-03-25T07:09:12.434Z,99.99
2019-03-25T07:10:12.425Z,99.99
2019-03-25T07:11:12.421Z,99.99
2019-03-25T07:12:12.428Z,99.99
2019-03-25T07:13:12.391Z,99.99
2019-03-25T07:14:12.388Z,99.99
2019-03-25T07:15:12.367Z,99.99
2019-03-25T07:16:12.404Z,99.99
2019-03-25T07:17:12.357Z,99.99
2019-03-25T07:18:12.339Z,99.99
2019-03-25T07:19:12.376Z,99.99
2019-03-25T07:20:12.320Z,99.99
2019-03-25T07:21:12.310Z,99.99
2019-03-25T07:22:12.301Z,99.99
2019-03-25T07:23:12.296Z,99.99
2019-03-25T07:24:12.293Z,99.99
2019-03-25T07:25:12.262Z,99.99
2019-03-25T07:26:12.252Z,99.99
2019-03-25T07:27:12.250Z,99.99
2019-03-25T07:28:12.262Z,99.99
2019-03-25T07:29:12.233Z,99.99
2019-03-25T07:30:12.211Z,99.99
2019-03-25T07:31:12.197Z,99.99
2019-03-25T07:32:12.205Z,99.99
2019-03-25T07:33:12.181Z,99.99
2019-03-25T07:34:12.184Z,99.99
2019-03-25T07:35:12.159Z,99.99
2019-03-25T07:36:12.140Z,99.99
2019-03-25T07:37:12.155Z,99.99
2019-03-25T07:38:12.118Z,99.99
2019-03-25T07:39:12.139Z,99.99
2019-03-25T07:40:12.106Z,99.99
2019-03-25T07:41:12.100Z,99.99
2019-03-25T07:42:12.079Z,99.99
2019-03-25T07:43:12.064Z,99.99
2019-03-25T07:44:12.076Z,99.99
2019-03-25T07:45:12.054Z,99.99
2019-03-25T07:46:12.037Z,99.99
2019-03-25T07:47:12.030Z,99.99
2019-03-25T07:48:12.014Z,99.99
2019-03-25T07:49:12.015Z,99.99
2019-03-25T07:50:11.991Z,99.99
2019-03-25T07:51:11.986Z,99.99
2019-03-25T07:52:11.973Z,99.99
2019-03-25T07:53:11.957Z,99.99
2019-03-25T07:54:12.028Z,99.99
2019-03-25T07:55:11.942Z,99.99
2019-03-25T07:56:11.923Z,99.99
2019-03-25T07:57:11.961Z,99.99
2019-03-25T07:58:11.921Z,99.99
2019-03-25T07:59:11.912Z,99.99
2019-03-25T08:00:13.866Z,99.99
2019-03-25T08:01:11.897Z,99.99
2019-03-25T08:02:11.877Z,99.99
2019-03-25T08:03:11.884Z,99.99
2019-03-25T08:04:11.883Z,99.99
2019-03-25T08:05:11.867Z,99.99
2019-03-25T08:06:11.857Z,99.99
2019-03-25T08:07:11.807Z,99.99
2019-03-25T08:08:11.852Z,99.99
2019-03-25T08:09:11.789Z,99.99
2019-03-25T08:10:11.809Z,99.99
2019-03-25T08:11:11.803Z,99.99
2019-03-25T08:12:11.755Z,99.95
2019-03-25T08:13:11.849Z,99.99
2019-03-25T08:14:11.795Z,99.48
2019-03-25T08:15:11.743Z,99.13
2019-03-25T08:16:11.800Z,98.71
2019-03-25T08:17:11.699Z,99.99
2019-03-25T08:18:11.695Z,99.74
2019-03-25T08:19:11.687Z,99.43
2019-03-25T08:20:11.685Z,98.19
2019-03-25T08:21:11.666Z,98.46
2019-03-25T08:22:11.644Z,99.39
2019-03-25T08:23:11.633Z,99.34
2019-03-25T08:24:11.679Z,99.55
2019-03-25T08:25:11.639Z,99.19
2019-03-25T08:26:11.640Z,99.25
2019-03-25T08:27:11.603Z,99.41
2019-03-25T08:28:11.594Z,98.90
2019-03-25T08:29:11.579Z,99.16
2019-03-25T08:30:11.574Z,99.11
2019-03-25T08:31:11.580Z,94.93
2019-03-25T08:32:11.541Z,96.84
2019-03-25T08:33:11.533Z,97.31
2019-03-25T08:34:11.545Z,97.63
2019-03-25T08:35:11.525Z,97.78
2019-03-25T08:36:11.496Z,95.99
2019-03-25T08:37:11.492Z,96.50
2019-03-25T08:38:11.474Z,95.95
2019-03-25T08:39:11.476Z,94.85
2019-03-25T08:40:11.483Z,94.45
2019-03-25T08:41:11.440Z,95.68
2019-03-25T08:42:11.432Z,94.76
2019-03-25T08:43:11.420Z,94.59
2019-03-25T08:44:11.408Z,95.83
2019-03-25T08:45:11.408Z,93.77
2019-03-25T08:46:11.408Z,94.23
2019-03-25T08:47:11.374Z,95.00
2019-03-25T08:48:11.368Z,95.62
2019-03-25T08:49:12.115Z,93.73
2019-03-25T08:50:11.346Z,93.31
2019-03-25T08:51:11.343Z,93.62
2019-03-25T08:52:11.338Z,93.11
2019-03-25T08:53:11.306Z,92.80
2019-03-25T08:54:11.304Z,93.31
2019-03-25T08:55:11.286Z,92.14
2019-03-25T08:56:11.294Z,91.72
2019-03-25T08:57:11.270Z,93.06
2019-03-25T08:58:12.462Z,93.16
2019-03-25T08:59:11.266Z,94.30
2019-03-25T09:00:11.251Z,92.86
2019-03-25T09:01:11.241Z,93.68
2019-03-25T09:02:11.217Z,90.12
2019-03-25T09:03:11.205Z,90.84
2019-03-25T09:04:11.193Z,92.02
2019-03-25T09:05:11.178Z,93.35
2019-03-25T09:06:11.214Z,91.30
2019-03-25T09:07:11.163Z,90.00
2019-03-25T09:08:11.148Z,90.72
2019-03-25T09:09:11.137Z,89.69
2019-03-25T09:10:11.130Z,92.37
2019-03-25T09:11:11.131Z,93.30
2019-03-25T09:12:11.113Z,93.15
2019-03-25T09:13:11.111Z,90.37
2019-03-25T09:14:11.083Z,90.92
2019-03-25T09:15:11.072Z,90.06
2019-03-25T09:16:11.073Z,89.95
2019-03-25T09:17:11.045Z,89.69
2019-03-25T09:18:11.041Z,90.00
2019-03-25T09:19:11.055Z,88.96
2019-03-25T09:20:11.022Z,89.89
2019-03-25T09:21:11.109Z,90.51
2019-03-25T09:22:10.994Z,89.50
2019-03-25T09:23:10.985Z,89.50
2019-03-25T09:24:10.978Z,91.00
2019-03-25T09:25:10.971Z,91.72
2019-03-25T09:26:10.979Z,91.99
2019-03-25T09:27:10.938Z,91.78
2019-03-25T09:28:10.926Z,91.47
2019-03-25T09:29:10.926Z,90.24
2019-03-25T09:30:10.911Z,87.92
2019-03-25T09:31:10.925Z,89.05
2019-03-25T09:32:10.885Z,88.57
2019-03-25T09:33:10.875Z,89.29
2019-03-25T09:34:10.861Z,88.10
2019-03-25T09:35:10.860Z,88.31
2019-03-25T09:36:10.857Z,89.65
2019-03-25T09:37:10.854Z,89.75
2019-03-25T09:38:10.820Z,89.75
2019-03-25T09:39:10.810Z,90.00
2019-03-25T09:40:10.802Z,88.35
2019-03-25T09:41:10.805Z,90.61
2019-03-25T09:42:10.789Z,88.96
2019-03-25T09:43:10.802Z,89.23
2019-03-25T09:44:10.755Z,90.16
2019-03-25T09:45:10.744Z,87.79
2019-03-25T09:46:10.752Z,87.79
2019-03-25T09:47:10.724Z,87.69
2019-03-25T09:48:10.711Z,88.89
2019-03-25T09:49:10.704Z,89.67
2019-03-25T09:50:10.692Z,91.62
2019-03-25T09:51:10.708Z,89.25
2019-03-25T09:52:10.669Z,87.19
2019-03-25T09:53:10.662Z,88.74
2019-03-25T09:54:10.647Z,87.54
2019-03-25T09:55:10.631Z,86.21
2019-03-25T09:56:10.642Z,86.52
2019-03-25T09:57:10.624Z,87.96
2019-03-25T09:58:10.654Z,86.61
2019-03-25T09:59:10.595Z,88.57
2019-03-25T10:00:10.580Z,89.13
2019-03-25T10:01:10.591Z,88.10
2019-03-25T10:02:10.560Z,89.85
2019-03-25T10:03:10.598Z,87.99
2019-03-25T10:04:10.540Z,88.86
2019-03-25T10:05:10.542Z,89.79
2019-03-25T10:06:10.534Z,89.28
2019-03-25T10:07:10.504Z,89.38
2019-03-25T10:08:10.493Z,90.51
2019-03-25T10:09:10.509Z,91.75
2019-03-25T10:10:10.467Z,91.64
2019-03-25T10:11:10.482Z,93.40
2019-03-25T10:12:10.449Z,90.10
2019-03-25T10:13:10.438Z,90.37
2019-03-25T10:14:10.427Z,89.44
2019-03-25T10:15:10.431Z,89.81
2019-03-25T10:16:10.472Z,90.16
2019-03-25T10:17:10.404Z,91.97
2019-03-25T10:18:10.383Z,91.62
2019-03-25T10:19:10.508Z,92.03
2019-03-25T10:20:10.368Z,90.45
2019-03-25T10:21:10.358Z,88.39
2019-03-25T10:22:10.368Z,87.42
2019-03-25T10:23:10.327Z,89.28
2019-03-25T10:24:10.322Z,86.87
2019-03-25T10:25:10.312Z,86.87
2019-03-25T10:26:10.297Z,86.42
2019-03-25T10:27:10.338Z,86.99
2019-03-25T10:28:10.275Z,86.89
2019-03-25T10:29:10.264Z,82.89
2019-03-25T10:30:10.255Z,83.46
2019-03-25T10:31:10.246Z,82.37
2019-03-25T10:32:10.253Z,83.91
2019-03-25T10:33:10.226Z,80.52
2019-03-25T10:34:10.219Z,81.48
2019-03-25T10:35:10.205Z,79.43
2019-03-25T10:36:10.219Z,82.00
2019-03-25T10:37:10.185Z,83.99
2019-03-25T10:38:19.166Z,85.12
2019-03-25T10:39:11.177Z,84.85
2019-03-25T10:40:10.196Z,87.63
2019-03-25T10:41:10.185Z,90.06
2019-03-25T10:42:10.139Z,88.92
2019-03-25T10:43:10.116Z,89.95
2019-03-25T10:44:10.113Z,89.79
2019-03-25T10:45:10.094Z,89.89
2019-03-25T10:46:10.081Z,90.98
2019-03-25T10:47:10.088Z,91.91
2019-03-25T10:48:10.057Z,91.45
2019-03-25T10:49:10.077Z,91.25
2019-03-25T10:50:10.038Z,92.95
2019-03-25T10:51:10.028Z,92.80
2019-03-25T10:52:10.026Z,91.63
2019-03-25T10:53:10.061Z,90.30
2019-03-25T10:54:10.004Z,88.56
2019-03-25T10:55:10.020Z,90.97
2019-03-25T10:56:09.964Z,87.08
2019-03-25T10:57:09.975Z,87.38
2019-03-25T10:58:09.944Z,90.16
2019-03-25T10:59:09.932Z,90.26
2019-03-25T11:00:09.923Z,90.16
2019-03-25T11:01:09.926Z,83.34
2019-03-25T11:02:09.953Z,84.88
2019-03-25T11:03:09.894Z,86.83
2019-03-25T11:04:09.880Z,84.31
2019-03-25T11:05:09.878Z,85.64
2019-03-25T11:06:09.862Z,84.72
2019-03-25T11:07:09.908Z,84.52
2019-03-25T11:08:09.848Z,84.34
2019-03-25T11:09:09.844Z,82.70
2019-03-25T11:10:09.817Z,82.19
2019-03-25T11:11:09.806Z,84.25
2019-03-25T11:12:09.812Z,81.88
2019-03-25T11:13:09.780Z,80.96
2019-03-25T11:14:09.785Z,80.65
2019-03-25T11:15:09.761Z,80.86
2019-03-25T11:16:10.414Z,80.55
2019-03-25T11:17:09.752Z,81.37
2019-03-25T11:18:09.733Z,79.22
2019-03-25T11:19:09.717Z,81.67
2019-03-25T11:20:09.717Z,80.60
2019-03-25T11:21:09.714Z,81.03
2019-03-25T11:22:09.708Z,81.24
2019-03-25T11:23:09.677Z,77.42
2019-03-25T11:24:09.670Z,75.48
2019-03-25T11:25:09.658Z,71.73
2019-03-25T11:26:09.647Z,71.25
2019-03-25T11:27:09.663Z,71.46
2019-03-25T11:28:09.621Z,69.79
2019-03-25T11:29:09.613Z,70.91
2019-03-25T11:30:09.598Z,69.82
2019-03-25T11:31:09.585Z,70.94
2019-03-25T11:32:09.596Z,69.85
2019-03-25T11:33:09.582Z,70.70
2019-03-25T11:34:09.557Z,71.49
2019-03-25T11:35:09.546Z,70.50
2019-03-25T11:36:09.532Z,70.64
2019-03-25T11:37:09.539Z,72.24
2019-03-25T11:38:09.507Z,70.58
2019-03-25T11:39:09.507Z,63.97
2019-03-25T11:40:09.487Z,66.49
2019-03-25T11:41:09.483Z,60.66
2019-03-25T11:42:10.347Z,60.56
2019-03-25T11:43:09.455Z,59.48
2019-03-25T11:44:09.447Z,59.05
2019-03-25T11:45:09.444Z,60.01
2019-03-25T11:46:09.428Z,55.15
2019-03-25T11:47:09.437Z,57.15
2019-03-25T11:48:09.401Z,58.34
2019-03-25T11:49:09.444Z,55.52
2019-03-25T11:50:09.383Z,57.11
2019-03-25T11:51:09.370Z,55.65
2019-03-25T11:52:09.401Z,55.90
2019-03-25T11:53:09.349Z,56.45
2019-03-25T11:54:09.345Z,53.98
2019-03-25T11:55:09.333Z,52.94
2019-03-25T11:56:09.320Z,50.48
2019-03-25T11:57:09.318Z,45.71
2019-03-25T11:58:09.293Z,46.80
2019-03-25T11:59:18.255Z,47.30
2019-03-25T12:00:10.274Z,44.59
2019-03-25T12:01:09.269Z,45.55
2019-03-25T12:02:17.213Z,48.94
2019-03-25T12:03:10.239Z,50.10
2019-03-25T12:04:10.573Z,46.69
2019-03-25T12:05:09.238Z,46.84
2019-03-25T12:06:09.210Z,48.17
2019-03-25T12:07:09.224Z,48.72
2019-03-25T12:08:09.207Z,47.13
2019-03-25T12:09:09.176Z,47.86
2019-03-25T12:10:09.170Z,48.97
2019-03-25T12:11:09.159Z,48.28
2019-03-25T12:12:09.156Z,48.16
2019-03-25T12:13:09.146Z,48.60
2019-03-25T12:14:09.120Z,48.96
2019-03-25T12:15:09.110Z,45.77
2019-03-25T12:16:09.102Z,48.34
2019-03-25T12:17:09.108Z,46.59
2019-03-25T12:18:09.092Z,49.65
2019-03-25T12:19:09.094Z,51.29
2019-03-25T12:20:09.053Z,49.29
2019-03-25T12:21:09.041Z,51.85
2019-03-25T12:22:09.080Z,50.68
2019-03-25T12:23:09.035Z,54.46
2019-03-25T12:24:09.020Z,57.34
2019-03-25T12:25:08.998Z,60.18
2019-03-25T12:26:08.989Z,59.39
2019-03-25T12:27:08.991Z,59.19
2019-03-25T12:28:08.984Z,58.04
2019-03-25T12:29:08.953Z,55.27
2019-03-25T12:30:08.950Z,53.93
2019-03-25T12:31:08.931Z,53.70
2019-03-25T12:32:08.928Z,55.30
2019-03-25T12:33:08.931Z,52.89
2019-03-25T12:34:08.923Z,49.99
2019-03-25T12:35:08.892Z,53.57
2019-03-25T12:36:08.880Z,53.19
2019-03-25T12:37:08.929Z,54.97
2019-03-25T12:38:08.874Z,52.45
2019-03-25T12:39:08.905Z,54.85
2019-03-25T12:40:08.839Z,58.67
2019-03-25T12:41:08.824Z,57.36
2019-03-25T12:42:08.812Z,53.55
2019-03-25T12:43:08.819Z,53.60
2019-03-25T12:44:08.791Z,54.24
2019-03-25T12:45:08.804Z,49.32
2019-03-25T12:46:08.775Z,49.07
2019-03-25T12:47:08.770Z,50.84
2019-03-25T12:48:08.767Z,49.71
2019-03-25T12:49:08.736Z,49.76
2019-03-25T12:50:08.724Z,48.63
2019-03-25T12:51:08.728Z,47.90
2019-03-25T12:52:08.722Z,45.54